Solon, Iowa
Current Conditions -  °F | °C
As of 7:52 AM on Friday 28 Nov 2014 (Local Time) from KCID Reporting Station
Broken Clouds Broken Clouds  
Wind Chill:   Ceiling: 11000
Heat Index: 18°   Visibility: 10mi
Dew Point: 12°   Wind: 14mph
Humidity: 78%   Direction: 140°SE
Pressure: 30.06"   Gusts: NA
Location:  41.81°N, 91.49°W
Report Text: KCID 281352Z 14012KT 10SM BKN110 M08/M11 A3006 RMK AO2 SLP196 T10781111
Loading
Personal Weather Stations






























Interactive Weather Map New forecast layout! Learn more

10-Day Weather Forecast

Advertisements
Track Severe Weather on mobile